createdAt,value
2022-10-18T00:00:46.241Z,65.69
2022-10-18T00:03:12.713Z,65.69
2022-10-18T00:05:39.304Z,65.37
2022-10-18T00:08:05.854Z,65.63
2022-10-18T00:10:32.365Z,65.36
2022-10-18T00:12:58.844Z,65.39
2022-10-18T00:15:25.491Z,65.40
2022-10-18T00:17:52.034Z,65.25
2022-10-18T00:20:18.530Z,65.22
2022-10-18T00:22:45.044Z,65.47
2022-10-18T00:25:11.798Z,65.49
2022-10-18T00:27:38.317Z,65.40
2022-10-18T00:30:05.515Z,65.63
2022-10-18T00:32:37.060Z,65.65
2022-10-18T00:35:04.314Z,65.27
2022-10-18T00:37:30.861Z,65.43
2022-10-18T00:39:57.348Z,65.53
2022-10-18T00:42:28.087Z,65.37
2022-10-18T00:45:17.953Z,65.21
2022-10-18T00:47:47.449Z,65.11
2022-10-18T00:50:14.130Z,64.98
2022-10-18T00:52:45.179Z,64.98
2022-10-18T00:55:11.878Z,64.99
2022-10-18T00:57:40.072Z,65.04
2022-10-18T01:00:09.766Z,64.97
2022-10-18T01:02:37.786Z,65.06
2022-10-18T01:05:05.033Z,65.05
2022-10-18T01:07:59.479Z,65.12
2022-10-18T01:10:32.916Z,65.10
2022-10-18T01:13:11.561Z,65.14
2022-10-18T01:15:50.029Z,64.91
2022-10-18T01:18:25.148Z,65.04
2022-10-18T01:21:16.582Z,65.11
2022-10-18T01:24:13.970Z,64.99
2022-10-18T01:27:29.084Z,65.08
2022-10-18T01:30:07.493Z,65.29
2022-10-18T01:32:44.360Z,65.27
2022-10-18T01:35:18.297Z,65.35
2022-10-18T01:37:46.569Z,64.94
2022-10-18T01:40:14.731Z,65.20
2022-10-18T01:42:42.162Z,65.20
2022-10-18T01:45:09.358Z,65.06
2022-10-18T01:47:36.219Z,64.98
2022-10-18T01:50:05.858Z,65.07
2022-10-18T01:52:32.754Z,65.15
2022-10-18T01:54:59.698Z,64.96
2022-10-18T01:57:37.660Z,65.10
2022-10-18T02:00:08.408Z,65.19
2022-10-18T02:02:46.461Z,65.07
2022-10-18T02:05:19.094Z,65.02
2022-10-18T02:08:22.901Z,65.15
2022-10-18T02:10:54.654Z,65.14
2022-10-18T02:13:22.653Z,65.15
2022-10-18T02:15:59.887Z,65.06
2022-10-18T02:18:35.368Z,65.64
2022-10-18T02:21:03.693Z,65.32
2022-10-18T02:23:30.998Z,65.28
2022-10-18T02:25:57.665Z,65.10
2022-10-18T02:31:19.550Z,65.51
2022-10-18T02:34:22.714Z,65.46
2022-10-18T02:36:57.746Z,65.88
2022-10-18T02:39:30.348Z,65.86
2022-10-18T02:41:58.204Z,66.03
2022-10-18T02:44:24.771Z,65.87
2022-10-18T02:46:51.287Z,66.21
2022-10-18T02:49:17.889Z,66.02
2022-10-18T02:51:44.381Z,66.18
2022-10-18T02:54:10.917Z,66.19
2022-10-18T02:56:37.391Z,66.33
2022-10-18T02:59:05.563Z,66.28
2022-10-18T03:01:32.998Z,66.25
2022-10-18T03:03:59.566Z,66.56
2022-10-18T03:06:26.069Z,66.71
2022-10-18T03:08:52.542Z,66.49
2022-10-18T03:11:19.056Z,66.55
2022-10-18T03:13:45.579Z,66.80
2022-10-18T03:16:12.570Z,66.64
2022-10-18T03:18:39.062Z,66.58
2022-10-18T03:21:06.823Z,66.46
2022-10-18T03:23:33.692Z,66.33
2022-10-18T03:26:00.460Z,66.44
2022-10-18T03:28:27.181Z,66.39
2022-10-18T03:30:53.713Z,66.61
2022-10-18T03:33:20.185Z,66.50
2022-10-18T03:35:46.662Z,66.62
2022-10-18T03:38:13.205Z,66.45
2022-10-18T03:40:39.673Z,66.62
2022-10-18T03:43:06.227Z,66.53
2022-10-18T03:45:32.672Z,66.58
2022-10-18T03:47:59.302Z,66.58
2022-10-18T03:50:25.774Z,66.48
2022-10-18T03:52:54.061Z,66.63
2022-10-18T03:55:20.577Z,66.69
2022-10-18T03:57:47.090Z,66.60
2022-10-18T04:00:14.373Z,66.48
2022-10-18T04:02:40.867Z,66.64
2022-10-18T04:05:07.687Z,66.86
2022-10-18T04:10:06.842Z,66.79
2022-10-18T04:12:33.817Z,66.56
2022-10-18T04:15:00.427Z,66.62
2022-10-18T04:17:26.973Z,66.93
2022-10-18T04:19:53.509Z,66.86
2022-10-18T04:22:20.153Z,66.91
2022-10-18T04:24:46.608Z,66.66
2022-10-18T04:27:13.089Z,66.88
2022-10-18T04:29:39.685Z,66.98
2022-10-18T04:32:06.296Z,66.94
2022-10-18T04:34:32.849Z,67.04
2022-10-18T04:36:59.421Z,66.75
2022-10-18T04:39:25.986Z,66.89
2022-10-18T04:41:52.493Z,66.63
2022-10-18T04:44:18.965Z,66.87
2022-10-18T04:46:45.423Z,66.70
2022-10-18T04:49:11.955Z,66.70
2022-10-18T04:51:38.478Z,66.83
2022-10-18T04:54:04.970Z,66.83
2022-10-18T04:56:31.819Z,66.77
2022-10-18T04:58:59.413Z,66.77
2022-10-18T05:01:25.981Z,66.90
2022-10-18T05:03:56.906Z,66.83
2022-10-18T05:06:23.454Z,66.68
2022-10-18T05:08:49.925Z,66.86
2022-10-18T05:11:16.481Z,66.85
2022-10-18T05:13:44.999Z,67.21
2022-10-18T05:16:13.793Z,67.03
2022-10-18T05:18:40.284Z,67.18
2022-10-18T05:21:06.743Z,67.02
2022-10-18T05:23:33.252Z,67.34
2022-10-18T05:26:04.426Z,67.25
2022-10-18T05:28:39.292Z,66.97
2022-10-18T05:31:08.254Z,67.00
2022-10-18T05:33:34.801Z,66.59
2022-10-18T05:36:01.411Z,66.97
2022-10-18T05:38:30.834Z,67.24
2022-10-18T05:40:58.480Z,67.13
2022-10-18T05:43:28.502Z,66.84
2022-10-18T05:45:55.022Z,66.91
2022-10-18T05:48:21.620Z,67.04
2022-10-18T05:50:48.080Z,67.02
2022-10-18T05:53:35.345Z,67.25
2022-10-18T05:56:01.614Z,67.20
2022-10-18T05:58:28.218Z,67.10
2022-10-18T06:00:54.736Z,66.90
2022-10-18T06:03:21.236Z,66.92
2022-10-18T06:05:47.755Z,66.77
2022-10-18T06:08:14.327Z,66.87
2022-10-18T06:10:40.869Z,66.64
2022-10-18T06:13:07.418Z,66.54
2022-10-18T06:15:33.946Z,66.83
2022-10-18T06:18:00.434Z,66.72
2022-10-18T06:20:26.929Z,67.15
2022-10-18T06:22:53.679Z,66.97
2022-10-18T06:25:20.202Z,66.74
2022-10-18T06:27:46.705Z,66.88
2022-10-18T06:30:13.261Z,67.04
2022-10-18T06:32:39.749Z,66.81
2022-10-18T06:35:06.752Z,66.56
2022-10-18T06:37:35.503Z,66.58
2022-10-18T06:40:02.397Z,66.52
2022-10-18T06:42:28.884Z,66.43
2022-10-18T06:44:55.345Z,66.21
2022-10-18T06:47:21.856Z,66.11
2022-10-18T06:49:48.391Z,66.24
2022-10-18T06:52:17.650Z,65.97
2022-10-18T06:54:45.439Z,65.92
2022-10-18T06:57:12.075Z,65.86
2022-10-18T06:59:38.552Z,65.71
2022-10-18T07:02:05.147Z,65.64
2022-10-18T07:04:31.657Z,65.72
2022-10-18T07:06:58.225Z,65.53
2022-10-18T07:09:24.696Z,65.09
2022-10-18T07:11:52.792Z,65.31
2022-10-18T07:14:19.274Z,65.25
2022-10-18T07:16:45.848Z,65.23
2022-10-18T07:19:12.460Z,65.18
2022-10-18T07:21:38.951Z,64.96
2022-10-18T07:24:05.701Z,64.73
2022-10-18T07:26:34.627Z,64.69
2022-10-18T07:29:09.843Z,64.55
2022-10-18T07:31:38.444Z,64.48
2022-10-18T07:34:05.319Z,64.43
2022-10-18T07:36:31.955Z,64.41
2022-10-18T07:38:59.585Z,64.22
2022-10-18T07:41:26.200Z,64.08
2022-10-18T07:43:53.301Z,64.04
2022-10-18T07:46:21.350Z,63.68
2022-10-18T07:48:48.033Z,63.93
2022-10-18T07:51:14.926Z,63.49
2022-10-18T07:53:41.398Z,63.57
2022-10-18T07:56:15.637Z,63.50
2022-10-18T07:58:43.364Z,63.26
2022-10-18T08:01:10.258Z,63.24
2022-10-18T08:03:37.454Z,62.85
2022-10-18T08:06:05.066Z,62.72
2022-10-18T08:08:31.703Z,62.77
2022-10-18T08:11:14.718Z,62.61
2022-10-18T08:13:41.389Z,62.77
2022-10-18T08:16:11.265Z,62.40
2022-10-18T08:18:38.214Z,62.18
2022-10-18T08:21:06.840Z,62.08
2022-10-18T08:23:34.134Z,62.45
2022-10-18T08:26:02.346Z,62.10
2022-10-18T08:28:29.130Z,62.04
2022-10-18T08:30:55.668Z,62.06
2022-10-18T08:33:22.702Z,61.88
2022-10-18T08:36:00.609Z,61.46
2022-10-18T08:38:30.104Z,61.63
2022-10-18T08:40:58.329Z,61.16
2022-10-18T08:43:38.854Z,61.35
2022-10-18T08:46:05.369Z,61.32
2022-10-18T08:48:44.219Z,61.24
2022-10-18T08:51:28.298Z,61.24
2022-10-18T08:54:03.060Z,61.09
2022-10-18T08:56:29.497Z,60.78
2022-10-18T08:58:56.000Z,60.83
2022-10-18T09:02:03.078Z,60.66
2022-10-18T09:05:08.459Z,60.51
2022-10-18T09:07:43.851Z,60.20
2022-10-18T09:10:33.374Z,60.02
2022-10-18T09:13:24.526Z,59.78
2022-10-18T09:15:58.946Z,59.56
2022-10-18T09:18:44.155Z,59.42
2022-10-18T09:21:45.883Z,59.09
2022-10-18T09:24:31.949Z,58.83
2022-10-18T09:27:04.997Z,58.66
2022-10-18T09:29:45.003Z,58.72
2022-10-18T09:32:26.541Z,58.44
2022-10-18T09:34:56.014Z,58.31
2022-10-18T09:37:24.254Z,58.15
2022-10-18T09:39:52.083Z,58.32
2022-10-18T09:42:28.693Z,57.58
2022-10-18T09:45:03.228Z,57.69
2022-10-18T09:47:36.265Z,57.93
2022-10-18T09:50:14.924Z,58.07
2022-10-18T09:52:46.127Z,58.26
2022-10-18T09:55:19.722Z,58.08
2022-10-18T09:57:50.655Z,58.14
2022-10-18T10:00:23.029Z,57.72
2022-10-18T10:02:49.577Z,57.40
2022-10-18T10:05:16.191Z,57.22
2022-10-18T10:07:44.871Z,57.38
2022-10-18T10:10:20.667Z,57.34
2022-10-18T10:12:47.954Z,57.33
2022-10-18T10:15:29.559Z,57.21
2022-10-18T10:18:05.600Z,57.32
2022-10-18T10:20:52.789Z,57.17
2022-10-18T10:23:22.387Z,57.27
2022-10-18T10:25:57.186Z,57.08
2022-10-18T10:28:24.246Z,57.51
2022-10-18T10:30:50.820Z,57.42
2022-10-18T10:33:38.996Z,57.66
2022-10-18T10:36:16.657Z,57.68
2022-10-18T10:38:43.397Z,57.87
2022-10-18T10:41:21.179Z,57.64
2022-10-18T10:43:48.231Z,57.51
2022-10-18T10:46:19.394Z,57.63
2022-10-18T10:48:47.865Z,57.67
2022-10-18T10:51:17.385Z,57.81
2022-10-18T10:53:51.305Z,57.96
2022-10-18T10:56:32.457Z,57.81
2022-10-18T10:59:15.393Z,57.64
2022-10-18T11:01:41.987Z,57.50
2022-10-18T11:04:26.528Z,57.39
2022-10-18T11:07:20.954Z,57.71
2022-10-18T11:09:58.293Z,57.47
2022-10-18T11:12:29.651Z,57.61
2022-10-18T11:15:03.011Z,57.22
2022-10-18T11:20:50.586Z,56.94
2022-10-18T11:23:18.350Z,56.52
2022-10-18T11:26:21.030Z,56.67
2022-10-18T11:29:19.238Z,56.38
2022-10-18T11:32:01.197Z,56.23
2022-10-18T11:35:08.138Z,55.74
2022-10-18T11:37:38.695Z,55.13
2022-10-18T11:40:40.612Z,55.02
2022-10-18T11:43:07.078Z,54.70
2022-10-18T11:45:57.778Z,54.57
2022-10-18T11:48:56.861Z,54.27
2022-10-18T11:51:38.752Z,53.82
2022-10-18T11:54:35.055Z,53.21
2022-10-18T11:57:19.889Z,52.94
2022-10-18T12:00:07.221Z,52.78
2022-10-18T12:02:49.008Z,52.19
2022-10-18T12:05:23.738Z,52.29
2022-10-18T12:08:09.149Z,52.26
2022-10-18T12:10:59.958Z,52.03
2022-10-18T12:13:53.067Z,51.29
2022-10-18T12:16:38.879Z,50.64
2022-10-18T12:19:22.004Z,50.60
2022-10-18T12:21:52.276Z,49.68
2022-10-18T12:24:22.080Z,49.93
2022-10-18T12:26:51.392Z,49.25
2022-10-18T12:29:30.466Z,49.31
2022-10-18T12:32:08.587Z,48.88
2022-10-18T12:34:51.573Z,48.68
2022-10-18T12:37:31.716Z,48.93
2022-10-18T12:40:13.486Z,48.55
2022-10-18T12:42:47.087Z,47.96
2022-10-18T12:45:13.500Z,47.76
2022-10-18T12:47:40.365Z,47.77
2022-10-18T12:50:23.185Z,47.69
2022-10-18T12:53:03.609Z,46.95
2022-10-18T12:55:32.721Z,47.01
2022-10-18T12:57:59.276Z,45.98
2022-10-18T13:00:31.779Z,46.47
2022-10-18T13:03:11.445Z,45.48
2022-10-18T13:05:55.607Z,45.47
2022-10-18T13:08:33.895Z,45.04
2022-10-18T13:11:12.486Z,43.41
2022-10-18T13:13:46.493Z,43.94
2022-10-18T13:16:27.035Z,43.22
2022-10-18T13:18:57.112Z,42.21
2022-10-18T13:21:32.296Z,42.06
2022-10-18T13:24:01.657Z,41.13
2022-10-18T13:26:44.696Z,41.06
2022-10-18T15:56:44.949Z,35.72
2022-10-18T15:59:21.758Z,36.73
2022-10-18T16:01:48.394Z,35.91
2022-10-18T16:04:25.518Z,36.00
2022-10-18T16:06:52.790Z,36.49
2022-10-18T16:09:20.706Z,36.94
2022-10-18T16:11:47.330Z,39.42
2022-10-18T16:14:13.894Z,40.79
2022-10-18T16:16:40.413Z,42.18
2022-10-18T16:19:07.959Z,42.83
2022-10-18T16:21:37.514Z,43.41
2022-10-18T16:24:04.777Z,43.90
2022-10-18T16:26:31.787Z,44.66
2022-10-18T16:28:58.920Z,44.54
2022-10-18T16:31:27.668Z,44.93
2022-10-18T16:33:55.239Z,45.79
2022-10-18T16:36:27.331Z,46.79
2022-10-18T16:38:55.017Z,46.67
2022-10-18T16:41:21.653Z,46.95
2022-10-18T16:43:49.650Z,47.21
2022-10-18T16:46:21.274Z,47.62
2022-10-18T16:48:49.091Z,47.31
2022-10-18T16:51:16.094Z,47.61
2022-10-18T16:53:43.082Z,48.09
2022-10-18T16:56:21.399Z,48.27
2022-10-18T16:58:48.598Z,48.87
2022-10-18T17:01:17.216Z,49.08
2022-10-18T17:03:44.387Z,49.32
2022-10-18T17:06:31.033Z,49.64
2022-10-18T17:08:58.014Z,49.59
2022-10-18T17:11:26.566Z,50.02
2022-10-18T17:13:53.490Z,50.03
2022-10-18T17:19:01.414Z,50.04
2022-10-18T17:21:28.968Z,49.95
2022-10-18T17:23:55.545Z,50.15
2022-10-18T17:26:28.773Z,50.49
2022-10-18T17:28:58.465Z,50.19
2022-10-18T17:31:25.089Z,50.20
2022-10-18T17:33:54.397Z,50.34
2022-10-18T17:36:21.814Z,50.51
2022-10-18T17:38:54.925Z,50.88
2022-10-18T17:41:21.527Z,51.32
2022-10-18T17:43:48.549Z,51.52
2022-10-18T17:46:16.279Z,51.78
2022-10-18T17:48:42.830Z,51.61
2022-10-18T17:51:10.998Z,51.57
2022-10-18T17:53:37.533Z,51.54
2022-10-18T17:56:04.813Z,51.71
2022-10-18T17:58:31.840Z,51.55
2022-10-18T18:01:07.609Z,51.31
2022-10-18T18:03:34.180Z,51.95
2022-10-18T18:06:00.742Z,51.89
2022-10-18T18:08:27.308Z,51.88
2022-10-18T18:10:55.307Z,52.70
2022-10-18T18:13:21.825Z,52.98
2022-10-18T18:15:48.365Z,52.52
2022-10-18T18:18:14.842Z,52.94
2022-10-18T18:20:41.385Z,53.27
2022-10-18T18:23:07.866Z,53.17
2022-10-18T18:25:34.441Z,53.06
2022-10-18T18:28:05.259Z,53.12
2022-10-18T18:30:34.018Z,53.14
2022-10-18T18:33:00.518Z,53.38
2022-10-18T18:35:27.018Z,53.24
2022-10-18T18:37:53.545Z,53.48
2022-10-18T18:40:20.595Z,53.72
2022-10-18T18:43:01.624Z,53.58
2022-10-18T18:45:33.562Z,53.37
2022-10-18T18:48:00.049Z,53.66
2022-10-18T18:50:26.575Z,54.15
2022-10-18T18:52:53.097Z,54.50
2022-10-18T18:55:19.614Z,54.41
2022-10-18T18:57:46.092Z,55.18
2022-10-18T19:00:13.450Z,54.68
2022-10-18T19:02:39.937Z,54.98
2022-10-18T19:05:06.706Z,54.82
2022-10-18T19:07:35.325Z,55.23
2022-10-18T19:10:02.134Z,55.68
2022-10-18T19:12:28.613Z,55.57
2022-10-18T19:14:55.145Z,55.43
2022-10-18T19:17:22.465Z,55.69
2022-10-18T19:19:48.998Z,55.67
2022-10-18T19:22:15.498Z,56.31
2022-10-18T19:24:42.015Z,56.21
2022-10-18T19:27:12.231Z,56.64
2022-10-18T19:29:40.422Z,56.70
2022-10-18T19:32:11.848Z,57.00
2022-10-18T19:34:39.107Z,56.92
2022-10-18T19:37:05.594Z,56.54
2022-10-18T19:39:34.410Z,56.84
2022-10-18T19:42:04.320Z,57.06
2022-10-18T19:44:32.518Z,57.11
2022-10-18T19:46:59.190Z,56.97
2022-10-18T19:49:26.170Z,57.40
2022-10-18T19:51:52.777Z,57.11
2022-10-18T19:54:19.385Z,57.68
2022-10-18T19:56:45.945Z,57.37
2022-10-18T19:59:13.642Z,58.04
2022-10-18T20:01:40.282Z,57.73
2022-10-18T20:04:08.308Z,57.60
2022-10-18T20:06:35.573Z,58.12
2022-10-18T20:09:02.349Z,58.13
2022-10-18T20:11:29.930Z,57.75
2022-10-18T20:13:56.922Z,58.21
2022-10-18T20:16:28.354Z,58.15
2022-10-18T20:18:59.712Z,58.14
2022-10-18T20:21:26.985Z,58.61
2022-10-18T20:23:53.754Z,58.84
2022-10-18T20:26:20.972Z,58.50
2022-10-18T20:28:49.040Z,58.72
2022-10-18T20:31:19.234Z,59.21
2022-10-18T20:33:47.074Z,59.28
2022-10-18T20:36:17.976Z,59.29
2022-10-18T20:38:46.594Z,58.90
2022-10-18T20:41:18.674Z,59.18
2022-10-18T20:43:49.851Z,59.56
2022-10-18T20:46:16.333Z,59.66
2022-10-18T20:48:42.834Z,59.79
2022-10-18T20:51:12.599Z,60.05
2022-10-18T20:53:39.732Z,60.08
2022-10-18T20:56:08.651Z,60.09
2022-10-18T20:58:35.774Z,60.67
2022-10-18T21:01:09.836Z,60.59
2022-10-18T21:03:38.161Z,60.92
2022-10-18T21:06:11.996Z,61.06
2022-10-18T21:08:38.871Z,60.80
2022-10-18T21:11:05.786Z,61.06
2022-10-18T21:13:32.837Z,60.51
2022-10-18T21:16:00.094Z,60.42
2022-10-18T21:18:28.650Z,60.55
2022-10-18T21:20:55.216Z,60.93
2022-10-18T21:23:22.335Z,60.75
2022-10-18T21:25:49.515Z,60.58
2022-10-18T21:28:16.845Z,60.51
2022-10-18T21:30:43.451Z,60.94
2022-10-18T21:33:10.970Z,61.32
2022-10-18T21:35:38.053Z,61.38
2022-10-18T21:38:05.172Z,61.50
2022-10-18T21:40:32.376Z,61.34
2022-10-18T21:42:58.894Z,61.12
2022-10-18T21:45:25.376Z,61.70
2022-10-18T21:47:51.852Z,61.64
2022-10-18T21:50:18.349Z,61.87
2022-10-18T21:52:44.869Z,62.14
2022-10-18T21:55:11.965Z,62.20
2022-10-18T21:57:38.467Z,61.81
2022-10-18T22:00:06.040Z,61.71
2022-10-18T22:02:33.597Z,61.64
2022-10-18T22:05:00.363Z,61.90
2022-10-18T22:07:26.907Z,62.09
2022-10-18T22:09:53.403Z,62.27
2022-10-18T22:12:19.910Z,62.23
2022-10-18T22:14:46.499Z,62.45
2022-10-18T22:17:12.985Z,62.16
2022-10-18T22:19:39.652Z,62.21
2022-10-18T22:22:06.130Z,62.30
2022-10-18T22:24:32.662Z,62.08
2022-10-18T22:26:59.214Z,62.50
2022-10-18T22:29:25.684Z,62.34
2022-10-18T22:31:53.773Z,62.79
2022-10-18T22:34:23.039Z,62.57
2022-10-18T22:36:49.563Z,62.79
2022-10-18T22:39:16.803Z,62.51
2022-10-18T22:41:43.521Z,62.74
2022-10-18T22:44:14.566Z,62.43
2022-10-18T22:46:41.845Z,62.27
2022-10-18T22:49:08.626Z,63.00
2022-10-18T22:54:06.570Z,62.75
2022-10-18T22:56:33.077Z,62.60
2022-10-18T22:58:59.702Z,62.94
2022-10-18T23:01:26.253Z,62.74
2022-10-18T23:03:57.578Z,62.63
2022-10-18T23:06:27.808Z,62.37
2022-10-18T23:08:56.633Z,62.64
2022-10-18T23:11:24.892Z,62.78
2022-10-18T23:13:51.584Z,62.65
2022-10-18T23:16:18.765Z,62.95
2022-10-18T23:18:52.243Z,62.81
2022-10-18T23:21:19.773Z,63.03
2022-10-18T23:23:46.705Z,63.04
2022-10-18T23:26:15.222Z,63.00
2022-10-18T23:28:44.102Z,63.03
2022-10-18T23:31:12.061Z,63.11
2022-10-18T23:33:39.290Z,63.18
2022-10-18T23:36:07.000Z,63.03
2022-10-18T23:38:34.452Z,63.08
2022-10-18T23:41:00.929Z,62.99
2022-10-18T23:43:27.555Z,62.94
2022-10-18T23:45:54.063Z,62.99
2022-10-18T23:48:20.558Z,62.96
2022-10-18T23:50:47.079Z,62.99
2022-10-18T23:53:13.611Z,63.06
2022-10-18T23:55:40.232Z,62.91
2022-10-18T23:58:06.706Z,63.04
